| time (UTC) | temp F | wind direction | speed MPH | gust MPH | rain 1hr in | rain 24hr in | rain mn in | humidity % | barometer mb |
| 20260503184504 | 59 | 255 | 0.0 | 1.0 | 0.00 | 0.00 | 0.00 | 39 | 1017.5 |
| 20260503184002 | 59 | 103 | 0.0 | 1.0 | 0.00 | 0.00 | 0.00 | 34 | 1017.7 |
| 20260503183501 | 59 | 203 | 0.0 | 2.0 | 0.00 | 0.00 | 0.00 | 36 | 1017.6 |
| 20260503183001 | 59 | 239 | 0.0 | 2.0 | 0.00 | 0.00 | 0.00 | 35 | 1017.7 |
| 20260503182502 | 59 | 256 | 0.0 | 1.0 | 0.00 | 0.00 | 0.00 | 36 | 1017.7 |
| 20260503182100 | 59 | 273 | 0.0 | 2.0 | 0.00 | 0.00 | 0.00 | 38 | 1017.8 |
| 20260503181600 | 58 | 250 | 0.0 | 4.0 | 0.00 | 0.00 | 0.00 | 34 | 1017.9 |
| 20260503181059 | 58 | 241 | 0.0 | 1.0 | 0.00 | 0.00 | 0.00 | 35 | 1018.1 |
| 20260503180559 | 58 | 129 | 0.0 | 3.0 | 0.00 | 0.00 | 0.00 | 32 | 1018.0 |
| 20260503180058 | 58 | 257 | 0.0 | 3.0 | 0.00 | 0.00 | 0.00 | 38 | 1018.1 |
| 20260503175557 | 58 | 134 | 0.0 | 1.0 | 0.00 | 0.00 | 0.00 | 37 | 1018.1 |
| 20260503175056 | 58 | 250 | 0.0 | 1.0 | 0.00 | 0.00 | 0.00 | 37 | 1018.1 |
| 20260503174556 | 57 | 235 | 0.0 | 1.0 | 0.00 | 0.00 | 0.00 | 40 | 1018.1 |
| 20260503174055 | 57 | 245 | 0.0 | 1.0 | 0.00 | 0.00 | 0.00 | 39 | 1018.3 |
| 20260503173555 | 57 | 252 | 0.0 | 1.0 | 0.00 | 0.00 | 0.00 | 39 | 1018.4 |
| 20260503173056 | 57 | 241 | 0.0 | 1.0 | 0.00 | 0.00 | 0.00 | 39 | 1018.5 |
| 20260503172554 | 56 | 236 | 0.0 | 1.0 | 0.00 | 0.00 | 0.00 | 38 | 1018.4 |
| 20260503172055 | 56 | 250 | 0.0 | 3.0 | 0.00 | 0.00 | 0.00 | 37 | 1018.5 |
| 20260503171611 | 56 | 252 | 0.0 | 3.0 | 0.00 | 0.00 | 0.00 | 40 | 1018.6 |
| 20260503171056 | 56 | 252 | 0.0 | 1.0 | 0.00 | 0.00 | 0.00 | 38 | 1018.6 |
| 20260503170553 | 56 | 239 | 0.0 | 1.0 | 0.00 | 0.00 | 0.00 | 37 | 1018.7 |
| 20260503170103 | 57 | 251 | 0.0 | 1.0 | 0.00 | 0.00 | 0.00 | 39 | 1018.7 |
| 20260503150533 | 51 | 91 | 0.0 | 1.0 | 0.00 | 0.00 | 0.00 | 55 | 1019.5 |
| 20260503131007 | 43 | 247 | 0.0 | 1.0 | 0.00 | 0.00 | 0.00 | 70 | 1019.3 |
| 20260503130507 | 43 | 248 | 0.0 | 1.0 | 0.00 | 0.00 | 0.00 | 72 | 1019.2 |
| 20260503110553 | 36 | 200 | 0.0 | 0.0 | 0.00 | 0.00 | 0.00 | 89 | 1018.1 |
| 20260503081534 | 38 | 140 | 0.0 | 0.0 | 0.00 | 0.00 | 0.00 | 84 | 1016.2 |
| 20260503081030 | 38 | 140 | 0.0 | 0.0 | 0.00 | 0.00 | 0.00 | 84 | 1016.1 |
| 20260503080529 | 38 | 140 | 0.0 | 0.0 | 0.00 | 0.00 | 0.00 | 84 | 1016.0 |
| 20260503072527 | 39 | 141 | 0.0 | 0.0 | 0.00 | 0.00 | 0.00 | 82 | 1015.7 |
| 20260503072025 | 39 | 141 | 0.0 | 0.0 | 0.00 | 0.00 | 0.00 | 82 | 1015.7 |
| 20260503071524 | 39 | 141 | 0.0 | 0.0 | 0.00 | 0.00 | 0.00 | 81 | 1015.7 |
| 20260503071023 | 40 | 141 | 0.0 | 0.0 | 0.00 | 0.00 | 0.00 | 81 | 1015.6 |
| 20260503070522 | 40 | 141 | 0.0 | 0.0 | 0.00 | 0.00 | 0.00 | 82 | 1015.6 |
| 20260503055014 | 40 | 146 | 0.0 | 0.0 | 0.00 | 0.00 | 0.00 | 78 | 1015.3 |
| 20260503054521 | 40 | 146 | 0.0 | 0.0 | 0.00 | 0.00 | 0.00 | 78 | 1015.3 |
| 20260503054014 | 40 | 146 | 0.0 | 0.0 | 0.00 | 0.00 | 0.00 | 78 | 1015.2 |
| 20260503053512 | 41 | 146 | 0.0 | 0.0 | 0.00 | 0.00 | 0.00 | 77 | 1015.2 |
| 20260503053013 | 41 | 146 | 0.0 | 0.0 | 0.00 | 0.00 | 0.00 | 76 | 1015.2 |
| 20260503052513 | 41 | 146 | 0.0 | 0.0 | 0.00 | 0.00 | 0.00 | 76 | 1015.2 |
| 20260503052010 | 41 | 146 | 0.0 | 0.0 | 0.00 | 0.00 | 0.00 | 75 | 1015.1 |
| 20260503051510 | 42 | 146 | 0.0 | 0.0 | 0.00 | 0.00 | 0.00 | 76 | 1015.1 |
| 20260503051007 | 42 | 146 | 0.0 | 0.0 | 0.00 | 0.00 | 0.00 | 75 | 1015.1 |
| 20260503050507 | 42 | 146 | 0.0 | 0.0 | 0.00 | 0.00 | 0.00 | 74 | 1015.0 |
| 20260503050007 | 42 | 146 | 0.0 | 0.0 | 0.00 | 0.00 | 0.00 | 75 | 1015.1 |
| 20260503045506 | 42 | 146 | 0.0 | 0.0 | 0.00 | 0.00 | 0.00 | 74 | 1015.1 |
| 20260503045009 | 42 | 146 | 0.0 | 0.0 | 0.00 | 0.00 | 0.00 | 75 | 1015.2 |
| 20260503044509 | 42 | 146 | 0.0 | 0.0 | 0.00 | 0.00 | 0.00 | 73 | 1015.1 |
| 20260503044004 | 42 | 146 | 0.0 | 0.0 | 0.00 | 0.00 | 0.00 | 74 | 1015.1 |
| 20260503043504 | 42 | 146 | 0.0 | 0.0 | 0.00 | 0.00 | 0.00 | 74 | 1015.0 |
| 20260503043003 | 42 | 189 | 0.0 | 0.0 | 0.00 | 0.00 | 0.00 | 73 | 1015.0 |
| 20260503042502 | 43 | 189 | 0.0 | 0.0 | 0.00 | 0.00 | 0.00 | 73 | 1014.9 |
| 20260503042002 | 43 | 190 | 0.0 | 0.0 | 0.00 | 0.00 | 0.00 | 73 | 1014.8 |
| 20260503041501 | 43 | 190 | 0.0 | 0.0 | 0.00 | 0.00 | 0.00 | 72 | 1014.7 |
| 20260503041059 | 42 | 128 | 0.0 | 0.0 | 0.00 | 0.00 | 0.00 | 71 | 1014.6 |
| 20260503040559 | 43 | 128 | 0.0 | 0.0 | 0.00 | 0.00 | 0.00 | 73 | 1014.6 |
| 20260503040058 | 43 | 128 | 0.0 | 0.0 | 0.00 | 0.00 | 0.00 | 73 | 1014.5 |
| 20260503035557 | 43 | 128 | 0.0 | 0.0 | 0.00 | 0.00 | 0.00 | 73 | 1014.4 |
| 20260503035056 | 43 | 127 | 0.0 | 0.0 | 0.00 | 0.00 | 0.00 | 73 | 1014.4 |
| 20260503034555 | 43 | 127 | 0.0 | 0.0 | 0.00 | 0.00 | 0.00 | 73 | 1014.3 |
| 20260503034054 | 43 | 127 | 0.0 | 0.0 | 0.00 | 0.00 | 0.00 | 73 | 1014.3 |
| 20260503033554 | 43 | 127 | 0.0 | 0.0 | 0.00 | 0.00 | 0.00 | 72 | 1014.3 |
| 20260503033053 | 43 | 127 | 0.0 | 0.0 | 0.00 | 0.00 | 0.00 | 72 | 1014.3 |
| 20260503032553 | 43 | 127 | 0.0 | 0.0 | 0.00 | 0.00 | 0.00 | 72 | 1014.2 |
| 20260503032052 | 43 | 127 | 0.0 | 0.0 | 0.00 | 0.00 | 0.00 | 71 | 1014.3 |
| 20260503031552 | 44 | 127 | 0.0 | 0.0 | 0.00 | 0.00 | 0.00 | 71 | 1014.2 |
| 20260503031051 | 44 | 127 | 0.0 | 0.0 | 0.00 | 0.00 | 0.00 | 70 | 1014.2 |
| 20260503030551 | 44 | 129 | 0.0 | 0.0 | 0.00 | 0.00 | 0.00 | 71 | 1014.2 |
| 20260503030054 | 44 | 127 | 0.0 | 0.0 | 0.00 | 0.00 | 0.00 | 70 | 1014.1 |
| 20260503025549 | 44 | 127 | 0.0 | 0.0 | 0.00 | 0.00 | 0.00 | 71 | 1014.1 |
| 20260503025049 | 44 | 127 | 0.0 | 0.0 | 0.00 | 0.00 | 0.00 | 69 | 1014.0 |
| 20260503024549 | 44 | 131 | 0.0 | 0.0 | 0.00 | 0.00 | 0.00 | 69 | 1014.0 |
| 20260503024048 | 44 | 131 | 0.0 | 0.0 | 0.00 | 0.00 | 0.00 | 68 | 1014.0 |
| 20260503023547 | 44 | 136 | 0.0 | 0.0 | 0.00 | 0.00 | 0.00 | 68 | 1014.0 |
| 20260503023050 | 44 | 136 | 0.0 | 0.0 | 0.00 | 0.00 | 0.00 | 68 | 1014.0 |
| 20260503022546 | 44 | 136 | 0.0 | 0.0 | 0.00 | 0.00 | 0.00 | 69 | 1013.9 |
| 20260503022047 | 44 | 136 | 0.0 | 0.0 | 0.00 | 0.00 | 0.00 | 68 | 1013.9 |
| 20260503021553 | 45 | 136 | 0.0 | 0.0 | 0.00 | 0.00 | 0.00 | 68 | 1013.8 |
| 20260503021044 | 45 | 136 | 0.0 | 0.0 | 0.00 | 0.00 | 0.00 | 67 | 1013.7 |
| 20260503020544 | 45 | 136 | 0.0 | 0.0 | 0.00 | 0.00 | 0.00 | 67 | 1013.7 |
| 20260503020045 | 45 | 136 | 0.0 | 0.0 | 0.00 | 0.00 | 0.00 | 67 | 1013.5 |
| 20260503015542 | 45 | 136 | 0.0 | 0.0 | 0.00 | 0.00 | 0.00 | 67 | 1013.5 |
| 20260503015041 | 45 | 136 | 0.0 | 0.0 | 0.00 | 0.00 | 0.00 | 66 | 1013.4 |
| 20260503014539 | 45 | 136 | 0.0 | 0.0 | 0.00 | 0.00 | 0.00 | 67 | 1013.3 |
| 20260503014039 | 45 | 136 | 0.0 | 0.0 | 0.00 | 0.00 | 0.00 | 65 | 1013.3 |
| 20260503013539 | 46 | 136 | 0.0 | 0.0 | 0.00 | 0.00 | 0.00 | 65 | 1013.3 |
| 20260503013039 | 46 | 136 | 0.0 | 0.0 | 0.00 | 0.00 | 0.00 | 66 | 1013.3 |
| 20260503012537 | 46 | 136 | 0.0 | 0.0 | 0.00 | 0.00 | 0.00 | 64 | 1013.2 |
| 20260503012037 | 46 | 149 | 0.0 | 0.0 | 0.00 | 0.00 | 0.00 | 64 | 1013.1 |
| 20260503011545 | 47 | 149 | 0.0 | 0.0 | 0.00 | 0.00 | 0.00 | 63 | 1013.0 |
| 20260503011033 | 47 | 149 | 0.0 | 0.0 | 0.00 | 0.00 | 0.00 | 64 | 1013.0 |
| 20260503010533 | 47 | 165 | 0.0 | 0.0 | 0.00 | 0.00 | 0.00 | 62 | 1013.0 |
| 20260503010036 | 47 | 173 | 0.0 | 0.0 | 0.00 | 0.00 | 0.00 | 63 | 1012.8 |
| 20260503005533 | 48 | 173 | 0.0 | 0.0 | 0.00 | 0.00 | 0.00 | 62 | 1012.7 |
| 20260503005030 | 49 | 173 | 0.0 | 0.0 | 0.00 | 0.00 | 0.00 | 61 | 1012.7 |
| 20260503004529 | 49 | 173 | 0.0 | 0.0 | 0.00 | 0.00 | 0.00 | 60 | 1012.6 |
| 20260503004028 | 50 | 173 | 0.0 | 0.0 | 0.00 | 0.00 | 0.00 | 58 | 1012.6 |
| 20260503003528 | 50 | 178 | 0.0 | 0.0 | 0.00 | 0.00 | 0.00 | 57 | 1012.6 |
| 20260503003027 | 50 | 179 | 0.0 | 1.0 | 0.00 | 0.00 | 0.00 | 55 | 1012.4 |
| 20260503002527 | 51 | 178 | 0.0 | 1.0 | 0.00 | 0.00 | 0.00 | 52 | 1012.5 |
| 20260503002026 | 51 | 129 | 0.0 | 0.0 | 0.00 | 0.00 | 0.00 | 51 | 1012.3 |
| 20260503001525 | 51 | 129 | 0.0 | 0.0 | 0.00 | 0.00 | 0.00 | 52 | 1012.1 |
| 20260503001027 | 52 | 138 | 0.0 | 0.0 | 0.00 | 0.00 | 0.00 | 49 | 1012.0 |
| 20260503000528 | 52 | 236 | 0.0 | 1.0 | 0.00 | 0.00 | 0.00 | 49 | 1011.9 |
| 20260503000040 | 53 | 236 | 0.0 | 1.0 | 0.00 | 0.00 | 0.00 | 48 | 1011.8 |
| 20260502235523 | 53 | 237 | 0.0 | 1.0 | 0.00 | 0.00 | 0.00 | 47 | 1011.8 |
| 20260502235023 | 53 | 236 | 0.0 | 1.0 | 0.00 | 0.00 | 0.00 | 46 | 1011.8 |
| 20260502234523 | 53 | 246 | 0.0 | 1.0 | 0.00 | 0.00 | 0.00 | 45 | 1011.7 |
| 20260502234023 | 54 | 129 | 0.0 | 1.0 | 0.00 | 0.00 | 0.00 | 47 | 1011.5 |
| 20260502233523 | 54 | 212 | 0.0 | 1.0 | 0.00 | 0.00 | 0.00 | 45 | 1011.4 |
| 20260502233023 | 54 | 251 | 0.0 | 1.0 | 0.00 | 0.00 | 0.00 | 47 | 1011.5 |
| 20260502232522 | 54 | 261 | 0.0 | 1.0 | 0.00 | 0.00 | 0.00 | 46 | 1011.3 |
| 20260502232022 | 54 | 237 | 0.0 | 1.0 | 0.00 | 0.00 | 0.00 | 44 | 1011.2 |
| 20260502231525 | 54 | 281 | 0.0 | 1.0 | 0.00 | 0.00 | 0.00 | 44 | 1011.1 |
| 20260502231023 | 55 | 143 | 0.0 | 1.0 | 0.00 | 0.00 | 0.00 | 42 | 1011.0 |
| 20260502230523 | 55 | 220 | 0.0 | 2.0 | 0.00 | 0.00 | 0.00 | 44 | 1011.1 |
| 20260502230024 | 55 | 245 | 0.0 | 2.0 | 0.00 | 0.00 | 0.00 | 44 | 1011.0 |
| 20260502225525 | 55 | 233 | 0.0 | 2.0 | 0.00 | 0.00 | 0.00 | 42 | 1011.0 |
| 20260502225021 | 55 | 223 | 0.0 | 2.0 | 0.00 | 0.00 | 0.00 | 44 | 1011.0 |
| 20260502224521 | 55 | 258 | 0.0 | 2.0 | 0.00 | 0.00 | 0.00 | 43 | 1010.7 |
| 20260502224023 | 55 | 214 | 0.0 | 1.0 | 0.00 | 0.00 | 0.00 | 44 | 1010.7 |
| 20260502223521 | 55 | 105 | 0.0 | 1.0 | 0.00 | 0.00 | 0.00 | 46 | 1010.9 |
| 20260502223028 | 55 | 221 | 0.0 | 1.0 | 0.00 | 0.00 | 0.00 | 43 | 1010.9 |
| 20260502222521 | 56 | 251 | 0.0 | 1.0 | 0.00 | 0.00 | 0.00 | 44 | 1010.9 |
| 20260502222022 | 56 | 140 | 0.0 | 1.0 | 0.00 | 0.00 | 0.00 | 41 | 1010.9 |
| 20260502221520 | 57 | 129 | 0.0 | 1.0 | 0.00 | 0.00 | 0.00 | 44 | 1010.9 |
| 20260502221020 | 57 | 120 | 0.0 | 4.0 | 0.00 | 0.00 | 0.00 | 40 | 1010.7 |
| 20260502220520 | 57 | 254 | 0.0 | 4.0 | 0.00 | 0.00 | 0.00 | 43 | 1010.6 |
| 20260502220020 | 57 | 108 | 0.0 | 1.0 | 0.00 | 0.00 | 0.00 | 39 | 1010.8 |
| 20260502215522 | 57 | 229 | 0.0 | 1.0 | 0.00 | 0.00 | 0.00 | 40 | 1010.6 |
| 20260502215023 | 57 | 130 | 0.0 | 2.0 | 0.00 | 0.00 | 0.00 | 40 | 1010.5 |
| 20260502214519 | 57 | 226 | 0.0 | 2.0 | 0.00 | 0.00 | 0.00 | 40 | 1010.3 |
| 20260502214019 | 58 | 280 | 0.0 | 5.0 | 0.00 | 0.00 | 0.00 | 40 | 1010.4 |
| 20260502213519 | 59 | 239 | 0.0 | 5.0 | 0.00 | 0.00 | 0.00 | 38 | 1010.2 |
| 20260502213019 | 59 | 278 | 0.0 | 2.0 | 0.00 | 0.00 | 0.00 | 41 | 1010.0 |
| 20260502212519 | 59 | 236 | 0.0 | 2.0 | 0.00 | 0.00 | 0.00 | 40 | 1010.1 |
| 20260502212019 | 58 | 199 | 0.0 | 3.0 | 0.00 | 0.00 | 0.00 | 40 | 1010.2 |
| 20260502211522 | 58 | 233 | 0.0 | 3.0 | 0.00 | 0.00 | 0.00 | 38 | 1010.1 |
| 20260502211018 | 58 | 150 | 0.0 | 2.0 | 0.00 | 0.00 | 0.00 | 40 | 1009.9 |
| 20260502210518 | 59 | 237 | 0.0 | 2.0 | 0.00 | 0.00 | 0.00 | 36 | 1010.0 |
| 20260502210019 | 60 | 195 | 0.0 | 1.0 | 0.00 | 0.00 | 0.00 | 36 | 1010.0 |
| 20260502205518 | 60 | 270 | 0.0 | 1.0 | 0.00 | 0.00 | 0.00 | 38 | 1009.8 |
| 20260502205022 | 60 | 332 | 0.0 | 3.0 | 0.00 | 0.00 | 0.00 | 41 | 1009.8 |
| 20260502204519 | 60 | 71 | 0.0 | 6.0 | 0.00 | 0.00 | 0.00 | 40 | 1010.0 |
| 20260502204019 | 59 | 234 | 0.0 | 6.0 | 0.00 | 0.00 | 0.00 | 38 | 1009.9 |
| 20260502203517 | 60 | 236 | 0.0 | 1.0 | 0.00 | 0.00 | 0.00 | 37 | 1009.9 |
| 20260502203016 | 60 | 275 | 0.0 | 1.0 | 0.00 | 0.00 | 0.00 | 39 | 1009.8 |
| 20260502202515 | 60 | 261 | 0.0 | 1.0 | 0.00 | 0.00 | 0.00 | 41 | 1009.8 |
| 20260502202015 | 59 | 89 | 0.0 | 4.0 | 0.00 | 0.00 | 0.00 | 42 | 1009.7 |
| 20260502201515 | 59 | 255 | 0.0 | 4.0 | 0.00 | 0.00 | 0.00 | 36 | 1009.9 |
| 20260502201015 | 58 | 245 | 0.0 | 1.0 | 0.00 | 0.00 | 0.00 | 40 | 1009.9 |
| 20260502200518 | 56 | 251 | 0.0 | 1.0 | 0.00 | 0.00 | 0.00 | 43 | 1009.8 |
| 20260502200015 | 56 | 274 | 0.0 | 3.0 | 0.00 | 0.00 | 0.00 | 40 | 1010.0 |
| 20260502195514 | 56 | 259 | 0.0 | 3.0 | 0.00 | 0.00 | 0.00 | 39 | 1010.1 |
| 20260502195016 | 57 | 243 | 0.0 | 1.0 | 0.00 | 0.00 | 0.00 | 39 | 1010.0 |
| 20260502194513 | 58 | 238 | 0.0 | 2.0 | 0.00 | 0.00 | 0.00 | 38 | 1010.2 |
| 20260502194013 | 59 | 260 | 0.0 | 3.0 | 0.00 | 0.00 | 0.00 | 39 | 1009.9 |
| 20260502193512 | 59 | 255 | 0.0 | 3.0 | 0.00 | 0.00 | 0.00 | 40 | 1010.0 |
| 20260502193011 | 59 | 271 | 0.0 | 1.0 | 0.00 | 0.00 | 0.00 | 40 | 1009.9 |
| 20260502192513 | 59 | 248 | 0.0 | 1.0 | 0.00 | 0.00 | 0.00 | 39 | 1010.0 |
| 20260502192009 | 59 | 236 | 0.0 | 1.0 | 0.00 | 0.00 | 0.00 | 39 | 1010.0 |
| 20260502191508 | 58 | 321 | 0.0 | 2.0 | 0.00 | 0.00 | 0.00 | 47 | 1010.0 |
| 20260502191008 | 56 | 243 | 0.0 | 2.0 | 0.00 | 0.00 | 0.00 | 46 | 1010.0 |
| 20260502190511 | 56 | 284 | 0.0 | 2.0 | 0.00 | 0.00 | 0.00 | 43 | 1010.4 |
| 20260502190008 | 56 | 266 | 0.0 | 1.0 | 0.00 | 0.00 | 0.00 | 44 | 1010.4 |
| 20260502185506 | 56 | 260 | 0.0 | 1.0 | 0.00 | 0.00 | 0.00 | 44 | 1010.5 |
| 20260502185007 | 55 | 137 | 0.0 | 1.0 | 0.00 | 0.00 | 0.00 | 46 | 1010.5 |